createdAt,value
2022-12-08T00:00:08.897Z,101058.63
2022-12-08T00:02:47.570Z,101059.56
2022-12-08T00:05:37.860Z,101046.94
2022-12-08T00:08:28.855Z,101041.63
2022-12-08T00:11:01.467Z,101051.13
2022-12-08T00:13:34.017Z,101027.88
2022-12-08T00:16:08.338Z,101029.28
2022-12-08T00:18:41.684Z,101026.88
2022-12-08T00:21:14.298Z,101019.59
2022-12-08T00:23:47.760Z,101003.03
2022-12-08T00:26:20.401Z,100998.72
2022-12-08T00:28:53.050Z,101005.66
2022-12-08T00:31:27.072Z,101002.25
2022-12-08T00:34:00.078Z,101000.31
2022-12-08T00:36:33.165Z,100993.97
2022-12-08T00:39:05.748Z,100994.41
2022-12-08T00:41:55.676Z,100991.03
2022-12-08T00:44:28.297Z,100990.34
2022-12-08T00:47:02.584Z,100988.09
2022-12-08T00:49:35.241Z,100981.06
2022-12-08T00:52:07.903Z,100984.22
2022-12-08T00:54:40.556Z,100980.59
2022-12-08T00:57:13.245Z,100987.28
2022-12-08T00:59:46.043Z,100982.63
2022-12-08T01:02:20.102Z,100972.19
2022-12-08T01:04:52.818Z,100989.91
2022-12-08T01:07:25.361Z,101000.00
2022-12-08T01:09:59.308Z,100993.03
2022-12-08T01:12:31.993Z,100976.16
2022-12-08T01:15:05.192Z,100977.63
2022-12-08T01:17:39.193Z,100970.13
2022-12-08T01:20:12.281Z,100976.06
2022-12-08T01:22:45.047Z,100963.81
2022-12-08T01:25:17.704Z,100965.94
2022-12-08T01:27:50.392Z,100972.06
2022-12-08T01:30:23.131Z,100971.50
2022-12-08T01:32:59.052Z,100980.41
2022-12-08T01:35:31.765Z,100972.00
2022-12-08T01:38:04.456Z,100963.13
2022-12-08T01:40:37.249Z,100966.19
2022-12-08T01:43:11.440Z,100962.69
2022-12-08T01:45:44.340Z,100959.28
2022-12-08T01:48:20.185Z,100954.63
2022-12-08T01:50:52.986Z,100947.13
2022-12-08T01:53:27.970Z,100947.03
2022-12-08T01:56:04.065Z,100954.97
2022-12-08T01:58:41.173Z,100954.75
2022-12-08T02:01:13.917Z,100956.09
2022-12-08T02:03:49.281Z,100960.84
2022-12-08T02:06:22.177Z,100947.25
2022-12-08T02:08:55.954Z,100952.25
2022-12-08T02:11:29.211Z,100946.78
2022-12-08T02:14:04.424Z,100950.66
2022-12-08T02:16:43.724Z,100939.06
2022-12-08T02:19:33.799Z,100940.22
2022-12-08T02:22:13.204Z,100941.25
2022-12-08T02:24:48.367Z,100938.03
2022-12-08T02:27:30.058Z,100936.34
2022-12-08T02:30:16.848Z,100932.00
2022-12-08T02:33:08.263Z,100924.19
2022-12-08T02:35:45.153Z,100921.59
2022-12-08T02:38:23.968Z,100914.69
2022-12-08T02:41:02.050Z,100913.13
2022-12-08T02:43:39.513Z,100907.66
2022-12-08T02:46:14.648Z,100903.47
2022-12-08T02:48:47.830Z,100896.66
2022-12-08T02:51:22.158Z,100894.63
2022-12-08T02:53:55.314Z,100891.53
2022-12-08T02:56:38.566Z,100892.13
2022-12-08T02:59:26.035Z,100881.91
2022-12-08T03:02:11.153Z,100877.72
2022-12-08T03:04:47.535Z,100883.72
2022-12-08T03:07:24.797Z,100875.31
2022-12-08T03:10:00.945Z,100873.97
2022-12-08T03:12:36.753Z,100873.97
2022-12-08T03:15:11.609Z,100876.91
2022-12-08T03:17:45.534Z,100868.28
2022-12-08T03:20:21.217Z,100882.00
2022-12-08T03:22:57.485Z,100886.91
2022-12-08T03:25:32.816Z,100884.63
2022-12-08T03:28:06.156Z,100883.03
2022-12-08T03:30:42.031Z,100871.34
2022-12-08T03:33:16.906Z,100866.13
2022-12-08T03:35:50.070Z,100872.28
2022-12-08T03:38:37.915Z,100869.19
2022-12-08T03:41:19.790Z,100888.38
2022-12-08T03:43:53.463Z,100868.84
2022-12-08T03:48:58.816Z,100861.81
2022-12-08T03:51:32.168Z,100851.72
2022-12-08T03:54:06.185Z,100838.56
2022-12-08T03:56:39.822Z,100861.69
2022-12-08T03:59:12.449Z,100855.34
2022-12-08T04:01:45.166Z,100854.22
2022-12-08T04:04:17.985Z,100849.66
2022-12-08T04:06:50.653Z,100855.78
2022-12-08T04:09:24.791Z,100835.59
2022-12-08T04:11:57.486Z,100844.44
2022-12-08T04:14:30.145Z,100847.88
2022-12-08T04:17:02.726Z,100846.72
2022-12-08T04:19:35.715Z,100854.31
2022-12-08T04:22:08.495Z,100840.84
2022-12-08T04:24:42.491Z,100828.69
2022-12-08T04:27:15.394Z,100824.38
2022-12-08T04:29:48.332Z,100823.13
2022-12-08T04:32:21.119Z,100827.22
2022-12-08T04:34:53.928Z,100824.41
2022-12-08T04:37:26.569Z,100826.53
2022-12-08T04:40:00.872Z,100821.53
2022-12-08T04:42:33.717Z,100819.06
2022-12-08T04:45:07.022Z,100817.94
2022-12-08T04:47:40.224Z,100819.97
2022-12-08T04:50:13.281Z,100816.66
2022-12-08T04:52:46.176Z,100819.97
2022-12-08T04:55:20.271Z,100810.00
2022-12-08T04:57:53.270Z,100808.94
2022-12-08T05:00:26.019Z,100811.91
2022-12-08T05:02:58.772Z,100806.78
2022-12-08T05:05:31.578Z,100800.78
2022-12-08T05:08:04.506Z,100803.28
2022-12-08T05:10:38.859Z,100811.13
2022-12-08T05:13:11.656Z,100813.28
2022-12-08T05:15:44.357Z,100807.94
2022-12-08T05:18:17.023Z,100811.69
2022-12-08T05:20:49.781Z,100817.00
2022-12-08T05:23:22.552Z,100801.81
2022-12-08T05:25:56.605Z,100800.09
2022-12-08T05:28:41.246Z,100798.28
2022-12-08T05:31:15.235Z,100797.50
2022-12-08T05:33:48.170Z,100812.69
2022-12-08T05:36:21.187Z,100816.44
2022-12-08T05:38:53.939Z,100809.09
2022-12-08T05:41:28.114Z,100814.19
2022-12-08T05:44:00.818Z,100807.59
2022-12-08T05:46:33.926Z,100814.97
2022-12-08T05:49:08.252Z,100818.16
2022-12-08T05:51:41.163Z,100815.41
2022-12-08T05:54:14.202Z,100814.72
2022-12-08T05:56:48.238Z,100817.00
2022-12-08T05:59:20.887Z,100817.78
2022-12-08T06:01:53.716Z,100817.78
2022-12-08T06:04:26.453Z,100816.22
2022-12-08T06:06:59.131Z,100816.66
2022-12-08T06:09:31.851Z,100817.47
2022-12-08T06:12:06.208Z,100810.53
2022-12-08T06:14:39.395Z,100815.41
2022-12-08T06:17:12.159Z,100815.31
2022-12-08T06:19:45.017Z,100813.50
2022-12-08T06:22:17.701Z,100812.25
2022-12-08T06:24:50.394Z,100808.97
2022-12-08T06:27:24.864Z,100806.34
2022-12-08T06:29:57.635Z,100816.34
2022-12-08T06:32:30.352Z,100811.91
2022-12-08T06:35:03.333Z,100804.19
2022-12-08T06:37:36.118Z,100807.84
2022-12-08T06:40:09.602Z,100811.00
2022-12-08T06:42:44.669Z,100814.06
2022-12-08T06:45:18.485Z,100807.25
2022-12-08T06:47:51.198Z,100806.13
2022-12-08T06:50:23.916Z,100805.31
2022-12-08T06:53:04.884Z,100801.81
2022-12-08T06:58:32.572Z,100788.53
2022-12-08T07:01:06.433Z,100782.41
2022-12-08T07:03:39.384Z,100776.63
2022-12-08T07:06:15.385Z,100783.44
2022-12-08T07:08:47.944Z,100792.50
2022-12-08T07:11:22.434Z,100802.50
2022-12-08T07:13:57.759Z,100799.66
2022-12-08T07:16:30.450Z,100802.94
2022-12-08T07:19:03.071Z,100795.22
2022-12-08T07:21:35.730Z,100805.22
2022-12-08T07:24:08.719Z,100795.47
2022-12-08T07:26:41.633Z,100793.19
2022-12-08T07:29:15.597Z,100791.50
2022-12-08T07:31:48.922Z,100786.75
2022-12-08T07:34:21.953Z,100796.03
2022-12-08T07:36:55.165Z,100794.31
2022-12-08T07:39:28.220Z,100788.19
2022-12-08T07:42:01.287Z,100796.59
2022-12-08T07:44:35.789Z,100787.84
2022-12-08T07:47:08.612Z,100791.84
2022-12-08T07:49:41.486Z,100783.31
2022-12-08T07:52:14.373Z,100783.00
2022-12-08T07:54:47.346Z,100776.19
2022-12-08T07:57:20.150Z,100777.09
2022-12-08T07:59:54.303Z,100767.13
2022-12-08T08:02:27.270Z,100770.63
2022-12-08T08:05:00.250Z,100760.97
2022-12-08T08:07:33.066Z,100771.66
2022-12-08T08:10:06.868Z,100765.53
2022-12-08T08:12:39.724Z,100769.84
2022-12-08T08:15:13.819Z,100773.13
2022-12-08T08:17:50.390Z,100769.28
2022-12-08T08:20:25.548Z,100773.00
2022-12-08T08:22:58.218Z,100781.97
2022-12-08T08:25:30.784Z,100778.00
2022-12-08T08:28:04.295Z,100777.56
2022-12-08T08:30:40.056Z,100779.94
2022-12-08T08:33:12.794Z,100788.44
2022-12-08T08:35:45.399Z,100800.91
2022-12-08T08:38:18.113Z,100828.66
2022-12-08T08:40:51.016Z,100830.16
2022-12-08T08:43:37.753Z,100822.88
2022-12-08T08:46:12.321Z,100826.94
2022-12-08T08:48:45.801Z,100822.19
2022-12-08T08:51:20.051Z,100828.78
2022-12-08T08:53:52.790Z,100828.28
2022-12-08T08:56:25.507Z,100826.25
2022-12-08T08:58:58.175Z,100825.81
2022-12-08T09:01:32.356Z,100824.88
2022-12-08T09:04:06.067Z,100828.72
2022-12-08T09:06:40.371Z,100827.41
2022-12-08T09:09:13.416Z,100826.25
2022-12-08T09:11:46.120Z,100832.59
2022-12-08T09:14:18.729Z,100832.94
2022-12-08T09:16:55.787Z,100830.22
2022-12-08T09:19:29.345Z,100830.06
2022-12-08T09:22:01.922Z,100827.00
2022-12-08T09:24:34.464Z,100822.16
2022-12-08T09:27:08.721Z,100817.63
2022-12-08T09:29:41.293Z,100803.66
2022-12-08T09:32:15.269Z,100809.13
2022-12-08T09:34:52.280Z,100809.56
2022-12-08T09:37:26.794Z,100802.63
2022-12-08T09:39:59.922Z,100794.81
2022-12-08T09:42:37.343Z,100780.44
2022-12-08T09:45:11.544Z,100778.50
2022-12-08T09:47:48.939Z,100783.16
2022-12-08T09:50:30.236Z,100789.19
2022-12-08T09:53:06.339Z,100791.75
2022-12-08T09:55:42.088Z,100794.47
2022-12-08T09:58:22.136Z,100798.47
2022-12-08T10:00:54.824Z,100793.72
2022-12-08T10:03:34.760Z,100792.78
2022-12-08T10:06:13.358Z,100797.47
2022-12-08T10:08:52.788Z,100798.22
2022-12-08T10:11:28.900Z,100809.91
2022-12-08T10:14:12.110Z,100808.66
2022-12-08T10:16:48.678Z,100797.44
2022-12-08T10:19:32.260Z,100793.72
2022-12-08T10:22:07.218Z,100782.94
2022-12-08T10:24:42.249Z,100771.16
2022-12-08T10:27:14.923Z,100770.03
2022-12-08T10:29:49.317Z,100771.16
2022-12-08T10:32:23.031Z,100761.88
2022-12-08T10:35:08.213Z,100760.19
2022-12-08T10:37:41.450Z,100761.31
2022-12-08T10:40:15.184Z,100760.53
2022-12-08T10:42:49.847Z,100755.09
2022-12-08T10:45:26.942Z,100759.84
2022-12-08T10:48:02.011Z,100763.00
2022-12-08T10:50:37.805Z,100752.47
2022-12-08T10:53:14.636Z,100737.41
2022-12-08T10:55:48.090Z,100726.19
2022-12-08T10:58:31.240Z,100724.25
2022-12-08T11:01:06.280Z,100727.88
2022-12-08T11:03:44.739Z,100724.38
2022-12-08T11:06:20.984Z,100723.78
2022-12-08T11:08:55.101Z,100721.78
2022-12-08T11:11:38.577Z,100719.72
2022-12-08T11:14:16.027Z,100711.47
2022-12-08T11:16:49.456Z,100712.13
2022-12-08T11:19:26.890Z,100717.78
2022-12-08T11:22:00.839Z,100715.50
2022-12-08T11:24:37.664Z,100721.75
2022-12-08T11:27:10.676Z,100724.72
2022-12-08T11:29:43.446Z,100729.25
2022-12-08T11:32:16.122Z,100722.88
2022-12-08T11:34:50.861Z,100720.63
2022-12-08T11:37:32.821Z,100724.72
2022-12-08T11:40:09.486Z,100726.53
2022-12-08T11:42:46.626Z,100718.81
2022-12-08T11:45:23.216Z,100725.81
2022-12-08T11:48:04.588Z,100721.16
2022-12-08T11:50:42.775Z,100712.91
2022-12-08T11:53:20.277Z,100709.50
2022-12-08T11:55:56.262Z,100707.56
2022-12-08T11:58:33.047Z,100706.13
2022-12-08T12:01:06.931Z,100694.78
2022-12-08T12:03:41.157Z,100690.66
2022-12-08T12:06:46.492Z,100689.88
2022-12-08T12:09:18.800Z,100691.81
2022-12-08T12:12:15.961Z,100697.38
2022-12-08T12:15:09.721Z,100700.41
2022-12-08T12:17:52.266Z,100695.66
2022-12-08T12:20:26.822Z,100692.59
2022-12-08T12:23:04.914Z,100680.25
2022-12-08T12:25:39.277Z,100666.16
2022-12-08T12:28:13.817Z,100668.66
2022-12-08T12:30:55.468Z,100648.97
2022-12-08T12:33:28.667Z,100648.75
2022-12-08T12:36:04.725Z,100640.53
2022-12-08T12:38:56.546Z,100641.94
2022-12-08T12:41:33.232Z,100642.16
2022-12-08T12:44:39.837Z,100635.00
2022-12-08T12:47:41.623Z,100639.41
2022-12-08T12:50:16.542Z,100641.94
2022-12-08T12:52:49.566Z,100645.09
2022-12-08T12:55:42.924Z,100648.03
2022-12-08T12:58:50.850Z,100646.47
2022-12-08T13:01:50.546Z,100649.63
2022-12-08T13:04:30.677Z,100651.41
2022-12-08T13:07:05.880Z,100654.06
2022-12-08T13:09:41.648Z,100665.50
2022-12-08T13:12:24.035Z,100664.72
2022-12-08T13:15:00.811Z,100667.88
2022-12-08T13:17:35.004Z,100671.81
2022-12-08T13:20:17.975Z,100670.81
2022-12-08T13:23:01.910Z,100664.13
2022-12-08T13:25:48.266Z,100645.66
2022-12-08T13:28:23.237Z,100632.84
2022-12-08T13:30:56.785Z,100632.41
2022-12-08T13:33:31.377Z,100623.75
2022-12-08T13:36:12.905Z,100620.38
2022-12-08T13:38:48.325Z,100620.03
2022-12-08T13:41:23.264Z,100621.03
2022-12-08T13:47:31.742Z,100602.47
2022-12-08T13:51:10.472Z,100592.81
2022-12-08T13:58:36.615Z,100602.34
2022-12-08T14:01:11.796Z,100591.94
2022-12-08T14:04:12.845Z,100591.84
2022-12-08T14:06:44.452Z,100595.69
2022-12-08T14:09:19.601Z,100606.34
2022-12-08T14:11:58.427Z,100616.09
2022-12-08T14:17:28.644Z,100628.00
2022-12-08T14:20:02.583Z,100623.91
2022-12-08T14:22:36.676Z,100619.75
2022-12-08T14:25:14.589Z,100620.75
2022-12-08T14:27:49.238Z,100620.88
2022-12-08T14:30:23.091Z,100617.25
2022-12-08T14:32:57.257Z,100607.41
2022-12-08T14:35:34.055Z,100603.00
2022-12-08T14:38:10.806Z,100595.53
2022-12-08T14:40:44.850Z,100602.78
2022-12-08T14:43:21.840Z,100611.16
2022-12-08T14:45:57.030Z,100606.63
2022-12-08T14:48:42.241Z,100604.22
2022-12-08T14:51:17.262Z,100614.88
2022-12-08T14:53:54.290Z,100616.50
2022-12-08T14:56:28.821Z,100608.22
2022-12-08T14:59:08.032Z,100610.03
2022-12-08T15:01:40.917Z,100608.91
2022-12-08T15:04:17.618Z,100604.47
2022-12-08T15:06:53.563Z,100594.84
2022-12-08T15:09:31.480Z,100573.66
2022-12-08T15:12:06.066Z,100578.53
2022-12-08T15:14:42.971Z,100597.06
2022-12-08T15:17:29.743Z,100588.47
2022-12-08T15:20:05.399Z,100595.72
2022-12-08T15:22:41.288Z,100592.19
2022-12-08T15:25:14.885Z,100591.69
2022-12-08T15:27:50.772Z,100591.91
2022-12-08T15:30:26.985Z,100585.22
2022-12-08T15:32:59.756Z,100578.31
2022-12-08T15:35:37.355Z,100575.16
2022-12-08T15:38:19.089Z,100579.09
2022-12-08T15:40:52.569Z,100577.06
2022-12-08T15:43:28.210Z,100577.66
2022-12-08T15:46:03.077Z,100575.81
2022-12-08T15:48:38.740Z,100587.38
2022-12-08T15:51:13.561Z,100587.28
2022-12-08T15:53:46.563Z,100582.41
2022-12-08T15:56:27.428Z,100580.94
2022-12-08T15:59:03.533Z,100583.22
2022-12-08T16:01:37.905Z,100591.00
2022-12-08T16:05:17.839Z,100612.75
2022-12-08T16:07:22.137Z,100600.75
2022-12-08T16:09:55.593Z,100589.31
2022-12-08T16:13:48.330Z,100586.94
2022-12-08T16:15:53.514Z,100574.81
2022-12-08T16:18:35.537Z,100582.19
2022-12-08T16:21:26.813Z,100574.47
2022-12-08T16:24:07.497Z,100566.19
2022-12-08T16:27:51.212Z,100558.38
2022-12-08T16:29:34.804Z,100575.50
2022-12-08T16:32:07.544Z,100579.69
2022-12-08T16:34:42.104Z,100579.25
2022-12-08T16:37:16.404Z,100576.53
2022-12-08T16:39:52.820Z,100568.81
2022-12-08T16:42:40.494Z,100567.34
2022-12-08T16:45:15.909Z,100571.53
2022-12-08T16:47:49.797Z,100573.47
2022-12-08T16:50:26.171Z,100565.66
2022-12-08T16:53:00.000Z,100559.75
2022-12-08T16:55:33.670Z,100570.84
2022-12-08T16:58:07.041Z,100568.81
2022-12-08T17:00:40.149Z,100562.69
2022-12-08T17:03:14.790Z,100560.31
2022-12-08T17:05:49.097Z,100543.34
2022-12-08T17:08:22.003Z,100551.59
2022-12-08T17:11:07.351Z,100544.00
2022-12-08T17:13:41.432Z,100539.81
2022-12-08T17:16:19.255Z,100542.75
2022-12-08T17:18:56.213Z,100543.00
2022-12-08T17:21:30.439Z,100547.28
2022-12-08T17:24:03.204Z,100551.16
2022-12-08T17:26:36.052Z,100538.56
2022-12-08T17:29:08.817Z,100544.78
2022-12-08T17:31:41.503Z,100536.91
2022-12-08T17:34:14.049Z,100537.22
2022-12-08T17:36:48.175Z,100531.47
2022-12-08T17:39:22.135Z,100526.25
2022-12-08T17:41:57.841Z,100520.38
2022-12-08T17:44:31.145Z,100527.38
2022-12-08T17:47:05.045Z,100526.25
2022-12-08T17:49:37.915Z,100515.38
2022-12-08T17:52:12.519Z,100519.19
2022-12-08T17:54:45.635Z,100518.31
2022-12-08T17:57:20.564Z,100523.06
2022-12-08T17:59:56.442Z,100517.41
2022-12-08T18:02:31.056Z,100516.97
2022-12-08T18:05:03.927Z,100519.31
2022-12-08T18:07:38.349Z,100518.19
2022-12-08T18:10:11.328Z,100508.81
2022-12-08T18:12:43.963Z,100512.31
2022-12-08T18:15:20.515Z,100511.31
2022-12-08T18:17:53.391Z,100509.50
2022-12-08T18:20:26.774Z,100514.00
2022-12-08T18:23:01.031Z,100518.22
2022-12-08T18:25:36.573Z,100509.72
2022-12-08T18:28:10.087Z,100506.09
2022-12-08T18:30:43.050Z,100512.88
2022-12-08T18:33:15.953Z,100507.56
2022-12-08T18:35:48.718Z,100508.59
2022-12-08T18:38:22.808Z,100514.94
2022-12-08T18:40:55.446Z,100521.47
2022-12-08T18:43:28.264Z,100518.66
2022-12-08T18:46:04.024Z,100526.25
2022-12-08T18:48:37.250Z,100517.88
2022-12-08T18:51:10.291Z,100531.00
2022-12-08T18:53:47.758Z,100531.69
2022-12-08T18:56:24.854Z,100539.47
2022-12-08T18:59:03.181Z,100544.03
2022-12-08T19:01:38.946Z,100547.19
2022-12-08T19:04:27.956Z,100542.09
2022-12-08T19:07:01.379Z,100554.78
2022-12-08T19:09:35.607Z,100549.31
2022-12-08T19:12:13.044Z,100555.78
2022-12-08T19:14:46.280Z,100554.09
2022-12-08T19:17:19.360Z,100564.03
2022-12-08T19:19:52.482Z,100561.69
2022-12-08T19:22:27.873Z,100560.19
2022-12-08T19:25:02.169Z,100567.91
2022-12-08T19:27:35.264Z,100561.00
2022-12-08T19:30:11.475Z,100569.13
2022-12-08T19:32:45.671Z,100570.75
2022-12-08T19:35:18.926Z,100571.19
2022-12-08T19:37:51.748Z,100581.47
2022-12-08T19:40:43.435Z,100579.69
2022-12-08T19:43:46.540Z,100581.69
2022-12-08T19:46:19.808Z,100591.78
2022-12-08T19:48:55.670Z,100591.91
2022-12-08T19:51:28.615Z,100587.13
2022-12-08T19:54:04.632Z,100591.47
2022-12-08T19:56:39.143Z,100585.56
2022-12-08T19:59:19.956Z,100585.44
2022-12-08T20:01:53.341Z,100578.44
2022-12-08T20:04:27.586Z,100576.16
2022-12-08T20:07:01.626Z,100581.94
2022-12-08T20:09:42.809Z,100582.19
2022-12-08T20:12:19.786Z,100590.75
2022-12-08T20:14:54.135Z,100592.31
2022-12-08T20:17:28.236Z,100591.44
2022-12-08T20:20:07.832Z,100591.44
2022-12-08T20:22:46.380Z,100597.75
2022-12-08T20:25:20.680Z,100601.75
2022-12-08T20:27:57.725Z,100602.09
2022-12-08T20:30:30.843Z,100608.50
2022-12-08T20:33:06.398Z,100608.06
2022-12-08T20:35:41.964Z,100600.03
2022-12-08T20:38:16.356Z,100604.31
2022-12-08T20:40:52.875Z,100609.06
2022-12-08T20:43:27.459Z,100610.66
2022-12-08T20:46:06.324Z,100612.22
2022-12-08T20:48:44.300Z,100610.53
2022-12-08T20:51:20.904Z,100614.50
2022-12-08T20:53:54.988Z,100620.13
2022-12-08T20:56:40.979Z,100626.03
2022-12-08T20:59:18.442Z,100622.84
2022-12-08T21:01:53.052Z,100625.41
2022-12-08T21:04:26.405Z,100621.25
2022-12-08T21:07:00.694Z,100624.19
2022-12-08T21:09:34.018Z,100625.75
2022-12-08T21:12:07.634Z,100626.91
2022-12-08T21:14:42.972Z,100626.41
2022-12-08T21:17:16.457Z,100630.25
2022-12-08T21:19:50.763Z,100629.59
2022-12-08T21:22:23.887Z,100633.78
2022-12-08T21:24:57.864Z,100638.06
2022-12-08T21:27:32.596Z,100636.03
2022-12-08T21:30:08.523Z,100634.56
2022-12-08T21:32:41.717Z,100631.47
2022-12-08T21:35:14.584Z,100633.44
2022-12-08T21:37:47.479Z,100635.97
2022-12-08T21:40:20.493Z,100639.81
2022-12-08T21:42:53.372Z,100643.84
2022-12-08T21:45:27.374Z,100639.75
2022-12-08T21:48:02.252Z,100635.44
2022-12-08T21:50:38.672Z,100633.41
2022-12-08T21:53:12.512Z,100633.84
2022-12-08T21:55:45.413Z,100635.97
2022-12-08T21:58:18.228Z,100634.06
2022-12-08T22:00:52.593Z,100635.19
2022-12-08T22:03:26.775Z,100634.53
2022-12-08T22:06:04.187Z,100635.88
2022-12-08T22:08:37.040Z,100632.91
2022-12-08T22:11:11.383Z,100639.03
2022-12-08T22:13:44.126Z,100632.81
2022-12-08T22:16:18.310Z,100639.72
2022-12-08T22:18:51.298Z,100639.72
2022-12-08T22:21:24.183Z,100638.44
2022-12-08T22:23:57.241Z,100631.09
2022-12-08T22:26:29.834Z,100640.94
2022-12-08T22:29:02.914Z,100638.09
2022-12-08T22:31:37.290Z,100636.66
2022-12-08T22:34:10.347Z,100635.47
2022-12-08T22:36:44.473Z,100632.41
2022-12-08T22:39:17.294Z,100630.19
2022-12-08T22:41:50.049Z,100628.34
2022-12-08T22:44:22.985Z,100631.34
2022-12-08T22:46:57.665Z,100622.75
2022-12-08T22:49:30.291Z,100626.59
2022-12-08T22:52:03.131Z,100620.38
2022-12-08T22:54:35.933Z,100610.22
2022-12-08T22:57:08.706Z,100621.06
2022-12-08T22:59:41.427Z,100617.69
2022-12-08T23:02:15.600Z,100617.88
2022-12-08T23:04:48.741Z,100618.53
2022-12-08T23:07:21.553Z,100617.59
2022-12-08T23:09:54.182Z,100620.81
2022-12-08T23:12:26.994Z,100612.19
2022-12-08T23:15:00.105Z,100613.66
2022-12-08T23:17:34.799Z,100619.06
2022-12-08T23:20:08.720Z,100617.81
2022-12-08T23:22:42.096Z,100622.13
2022-12-08T23:25:14.920Z,100620.38
2022-12-08T23:27:48.086Z,100619.41
2022-12-08T23:30:21.031Z,100627.06
2022-12-08T23:32:57.339Z,100622.75
2022-12-08T23:35:30.334Z,100619.25
2022-12-08T23:38:03.081Z,100625.16
2022-12-08T23:40:35.844Z,100625.34
2022-12-08T23:43:08.978Z,100623.44
2022-12-08T23:45:41.844Z,100624.91
2022-12-08T23:48:15.923Z,100620.91
2022-12-08T23:50:49.004Z,100622.03
2022-12-08T23:53:22.055Z,100624.75
2022-12-08T23:55:59.234Z,100619.06
2022-12-08T23:58:32.898Z,100616.81
